Time;durP1;ratioP1;P1;durP2;ratioP2;P2;SDS_P1;SDS_P2;PMS_P1;PMS_P2;Temp;Humidity;BMP_temperature;BMP_pressure;BME280_temperature;BME280_humidity;BME280_pressure;Samples;Min_cycle;Max_cycle;Signal;HPM_P1;HPM_P2
2022/09/29 00:00:34;;;;;;;7.13;5.40;;;10.00;99.90;;;;;;5056584;28;20183;-54
2022/09/29 00:03:00;;;;;;;6.55;5.22;;;9.90;99.90;;;;;;5056350;28;20227;-54
2022/09/29 00:05:27;;;;;;;7.18;5.03;;;9.90;99.90;;;;;;5051825;28;20271;-49
2022/09/29 00:07:53;;;;;;;6.65;5.55;;;9.90;99.90;;;;;;5049824;28;20175;-52
2022/09/29 00:10:18;;;;;;;7.13;5.35;;;9.90;99.90;;;;;;5038910;28;20171;-50
2022/09/29 00:12:44;;;;;;;6.80;5.40;;;9.90;99.90;;;;;;5038638;28;20188;-52
2022/09/29 00:15:10;;;;;;;8.75;5.30;;;9.90;99.90;;;;;;5056353;28;20221;-51
2022/09/29 00:17:36;;;;;;;7.00;5.28;;;9.80;99.90;;;;;;5038682;28;20260;-52
2022/09/29 00:20:03;;;;;;;8.63;4.90;;;9.90;99.90;;;;;;5044504;28;20229;-53
2022/09/29 00:22:29;;;;;;;8.80;5.88;;;9.80;99.90;;;;;;5055914;28;20190;-51
2022/09/29 00:24:55;;;;;;;7.75;4.97;;;9.80;99.90;;;;;;5056444;28;20179;-52
2022/09/29 00:27:20;;;;;;;6.88;5.00;;;9.80;99.90;;;;;;5044682;28;20184;-51
2022/09/29 00:29:46;;;;;;;9.05;4.82;;;9.80;99.90;;;;;;5049958;28;20186;-49
2022/09/29 00:32:12;;;;;;;9.55;5.70;;;9.70;99.90;;;;;;5037733;28;20717;-50
2022/09/29 00:34:38;;;;;;;8.10;5.20;;;9.70;99.90;;;;;;5037762;28;20182;-53
2022/09/29 00:37:04;;;;;;;8.05;5.55;;;9.70;99.90;;;;;;5051602;28;20196;-53
2022/09/29 00:39:30;;;;;;;6.28;5.38;;;9.70;99.90;;;;;;5052693;28;20619;-51
2022/09/29 00:41:56;;;;;;;8.63;5.68;;;9.70;99.90;;;;;;5056024;28;20179;-53
2022/09/29 00:44:22;;;;;;;8.05;5.55;;;9.70;99.90;;;;;;5057684;28;20555;-52
2022/09/29 00:46:52;;;;;;;7.50;5.53;;;9.70;99.90;;;;;;5055189;28;20182;-54
2022/09/29 00:49:45;;;;;;;6.82;5.20;;;9.60;99.90;;;;;;5037728;28;20550;-52
2022/09/29 00:52:22;;;;;;;8.32;5.35;;;9.60;99.90;;;;;;5042299;28;20306;-56
2022/09/29 00:54:58;;;;;;;5.57;4.78;;;9.60;99.90;;;;;;5055589;28;20179;-53
2022/09/29 00:57:30;;;;;;;6.82;5.20;;;9.60;99.90;;;;;;5054729;28;20171;-50
2022/09/29 01:00:03;;;;;;;6.13;5.00;;;9.50;99.90;;;;;;5036343;28;20191;-53
2022/09/29 01:02:31;;;;;;;6.38;4.80;;;9.50;99.90;;;;;;5035424;28;20315;-50
2022/09/29 01:04:58;;;;;;;5.95;5.20;;;9.50;99.90;;;;;;5018147;28;20658;-54
2022/09/29 01:07:26;;;;;;;5.82;5.22;;;9.50;99.90;;;;;;5035153;28;20599;-50
2022/09/29 01:09:55;;;;;;;7.47;5.00;;;9.40;99.90;;;;;;5040816;28;20222;-52
2022/09/29 01:12:21;;;;;;;7.40;5.65;;;9.40;99.90;;;;;;5036728;28;20207;-53
2022/09/29 01:14:47;;;;;;;7.57;5.32;;;9.40;99.90;;;;;;5037521;28;20237;-51
2022/09/29 01:17:14;;;;;;;8.32;5.10;;;9.40;99.90;;;;;;5055305;28;20215;-50
2022/09/29 01:20:04;;;;;;;6.25;4.65;;;9.40;99.90;;;;;;5034650;28;20180;-53
2022/09/29 01:23:07;;;;;;;5.80;4.80;;;9.40;99.90;;;;;;5041900;28;20242;-50
2022/09/29 01:26:06;;;;;;;7.35;4.95;;;9.40;99.90;;;;;;5055030;28;20206;-55
2022/09/29 01:28:50;;;;;;;6.90;5.20;;;9.30;99.90;;;;;;5054545;28;20255;-51
2022/09/29 01:31:24;;;;;;;8.70;5.63;;;9.30;99.90;;;;;;5038409;28;20663;-53
2022/09/29 01:34:17;;;;;;;10.38;6.53;;;9.30;99.90;;;;;;5027975;28;20543;-51
2022/09/29 01:37:23;;;;;;;6.35;5.38;;;9.30;99.90;;;;;;5054024;28;20174;-51
2022/09/29 01:40:01;;;;;;;7.50;5.47;;;9.20;99.90;;;;;;5053570;28;20168;-49
2022/09/29 01:42:38;;;;;;;10.13;6.28;;;9.30;99.90;;;;;;5054612;28;20163;-47
2022/09/29 01:45:15;;;;;;;7.70;5.30;;;9.30;99.90;;;;;;5047884;28;20182;-51
2022/09/29 01:47:51;;;;;;;7.28;6.10;;;9.20;99.90;;;;;;5068545;28;20252;-53
2022/09/29 01:50:26;;;;;;;8.00;6.35;;;9.20;99.90;;;;;;5051957;28;20170;-54
2022/09/29 01:53:00;;;;;;;7.07;6.07;;;9.20;99.90;;;;;;5016620;28;20590;-52
2022/09/29 01:55:29;;;;;;;6.90;6.20;;;9.20;99.90;;;;;;5033424;28;20194;-54
2022/09/29 01:58:01;;;;;;;6.40;5.75;;;9.20;99.90;;;;;;5033845;28;20179;-51
2022/09/29 02:00:31;;;;;;;6.95;6.03;;;9.20;99.90;;;;;;5044060;28;20237;-52
2022/09/29 02:02:59;;;;;;;7.80;6.25;;;9.10;99.90;;;;;;5052907;28;20584;-53
2022/09/29 02:05:28;;;;;;;8.07;6.22;;;9.10;99.90;;;;;;5053955;28;20179;-54
2022/09/29 02:07:57;;;;;;;8.63;6.32;;;9.10;99.90;;;;;;5053884;28;20192;-50
2022/09/29 02:10:29;;;;;;;9.57;6.72;;;9.10;99.90;;;;;;5054194;28;20168;-52
2022/09/29 02:12:58;;;;;;;7.95;6.38;;;9.00;99.90;;;;;;5048716;28;20179;-53
2022/09/29 02:15:29;;;;;;;8.80;6.57;;;9.10;99.90;;;;;;5054147;28;20172;-53
2022/09/29 02:18:00;;;;;;;7.45;6.65;;;9.00;99.90;;;;;;5054356;28;20171;-51
2022/09/29 02:20:25;;;;;;;7.63;6.35;;;9.00;99.90;;;;;;5053048;28;20180;-52
2022/09/29 02:22:51;;;;;;;7.78;6.50;;;9.00;99.90;;;;;;5044968;28;20187;-55
2022/09/29 02:25:18;;;;;;;7.20;6.40;;;9.00;99.90;;;;;;5033852;28;20183;-50
2022/09/29 02:27:49;;;;;;;8.68;6.78;;;8.90;99.90;;;;;;5033215;28;20202;-50
2022/09/29 02:30:16;;;;;;;9.05;6.82;;;9.00;99.90;;;;;;5049058;28;20776;-54
2022/09/29 02:32:43;;;;;;;9.23;5.93;;;9.00;99.90;;;;;;5019824;28;20588;-53
2022/09/29 02:35:11;;;;;;;7.88;5.85;;;8.90;99.90;;;;;;5054072;28;20179;-49
2022/09/29 02:37:53;;;;;;;8.40;7.05;;;8.90;99.90;;;;;;5053005;28;20645;-56
2022/09/29 02:40:58;;;;;;;9.50;6.30;;;8.90;99.90;;;;;;5042364;28;20176;-51
2022/09/29 02:43:51;;;;;;;7.90;6.35;;;8.90;99.90;;;;;;5024762;28;20188;-50
2022/09/29 02:46:37;;;;;;;9.95;7.07;;;8.90;99.90;;;;;;5033989;28;20168;-50
2022/09/29 02:49:25;;;;;;;13.60;7.80;;;8.80;99.90;;;;;;5033903;28;20160;-54
2022/09/29 02:51:57;;;;;;;10.32;7.22;;;8.80;99.90;;;;;;5051296;28;20199;-54
2022/09/29 02:54:44;;;;;;;8.23;7.20;;;8.80;99.90;;;;;;5035459;28;20225;-52
2022/09/29 02:57:39;;;;;;;9.55;7.38;;;8.80;99.90;;;;;;5053371;28;20186;-54
2022/09/29 03:00:09;;;;;;;10.38;7.85;;;8.80;99.90;;;;;;5052426;28;20175;-52
2022/09/29 03:02:39;;;;;;;10.57;8.27;;;8.80;99.90;;;;;;5051060;28;20230;-50
2022/09/29 03:05:10;;;;;;;9.27;7.55;;;8.80;99.90;;;;;;5052718;28;20667;-53
2022/09/29 03:07:38;;;;;;;12.90;8.02;;;8.80;99.90;;;;;;5053090;28;20246;-50
2022/09/29 03:10:05;;;;;;;9.73;8.07;;;8.70;99.90;;;;;;5052882;28;20198;-52
2022/09/29 03:12:31;;;;;;;11.23;7.40;;;8.70;99.90;;;;;;5052069;28;20280;-50
2022/09/29 03:14:56;;;;;;;10.10;7.68;;;8.70;99.90;;;;;;5018999;28;20187;-53
2022/09/29 03:17:22;;;;;;;11.15;7.10;;;8.70;99.90;;;;;;5035417;28;20215;-52
2022/09/29 03:19:48;;;;;;;9.77;7.30;;;8.70;99.90;;;;;;5053183;28;20572;-53
2022/09/29 03:22:14;;;;;;;9.68;7.05;;;8.70;99.90;;;;;;5052030;28;20504;-52
2022/09/29 03:24:40;;;;;;;9.05;6.63;;;8.70;99.90;;;;;;5035768;28;20219;-50
2022/09/29 03:27:08;;;;;;;8.55;7.65;;;8.70;99.90;;;;;;5051851;28;20262;-53
2022/09/29 03:29:34;;;;;;;8.85;7.25;;;8.70;99.90;;;;;;5053135;28;20274;-51
2022/09/29 03:32:01;;;;;;;9.45;7.53;;;8.60;99.90;;;;;;5049298;28;20245;-50
2022/09/29 03:34:26;;;;;;;10.18;7.20;;;8.60;99.90;;;;;;5032910;28;20184;-57
2022/09/29 03:36:52;;;;;;;15.70;7.75;;;8.60;99.90;;;;;;5033677;28;20180;-54
2022/09/29 03:39:18;;;;;;;8.52;6.45;;;8.60;99.90;;;;;;5034905;28;20188;-54
2022/09/29 03:41:43;;;;;;;40.95;6.80;;;8.60;99.90;;;;;;5035004;28;20187;-51
2022/09/29 03:44:09;;;;;;;50.45;6.22;;;8.60;99.90;;;;;;5036718;28;20183;-54
2022/09/29 03:46:35;;;;;;;54.35;6.50;;;8.50;99.90;;;;;;5038412;28;20186;-54
2022/09/29 03:49:01;;;;;;;44.38;6.78;;;8.50;99.90;;;;;;5072866;28;20209;-55
2022/09/29 03:51:26;;;;;;;9.77;6.82;;;8.50;99.90;;;;;;5051576;28;20734;-55
2022/09/29 03:53:53;;;;;;;13.27;7.45;;;8.50;99.90;;;;;;5049588;28;20496;-55
2022/09/29 03:56:18;;;;;;;8.48;7.28;;;8.50;99.90;;;;;;5052769;28;20541;-55
2022/09/29 03:58:44;;;;;;;10.43;7.22;;;8.50;99.90;;;;;;5052361;28;20172;-55
2022/09/29 04:01:10;;;;;;;10.10;7.03;;;8.50;99.90;;;;;;5034144;28;20594;-54
2022/09/29 04:03:35;;;;;;;21.02;7.03;;;8.40;99.90;;;;;;5049269;28;20618;-55
2022/09/29 04:06:01;;;;;;;26.42;7.13;;;8.40;99.90;;;;;;5032884;28;20191;-55
2022/09/29 04:08:27;;;;;;;74.85;7.97;;;8.40;99.90;;;;;;5044241;28;20666;-55
2022/09/29 04:10:53;;;;;;;30.10;6.80;;;8.30;99.90;;;;;;5052324;28;20207;-54
2022/09/29 04:13:20;;;;;;;85.70;8.13;;;8.30;99.90;;;;;;5052494;28;20183;-54
2022/09/29 04:15:47;;;;;;;63.55;8.15;;;8.30;99.90;;;;;;5042847;28;20179;-53
2022/09/29 04:18:13;;;;;;;95.13;9.18;;;8.30;99.90;;;;;;5052188;28;20187;-54
2022/09/29 04:20:39;;;;;;;76.95;9.82;;;8.30;99.90;;;;;;5017821;28;20199;-52
2022/09/29 04:23:05;;;;;;;79.72;9.23;;;8.30;99.90;;;;;;5054708;28;20282;-50
2022/09/29 04:25:32;;;;;;;101.78;8.40;;;8.30;99.90;;;;;;5030921;28;20176;-51
2022/09/29 04:27:58;;;;;;;67.88;9.30;;;8.30;99.90;;;;;;5051185;28;20643;-55
2022/09/29 04:30:24;;;;;;;118.20;11.38;;;8.30;99.90;;;;;;5037674;28;20180;-53
2022/09/29 04:32:49;;;;;;;56.22;9.95;;;8.30;99.90;;;;;;5036338;28;20638;-56
2022/09/29 04:35:15;;;;;;;140.93;10.85;;;8.30;99.90;;;;;;5018370;28;20187;-54
2022/09/29 04:37:41;;;;;;;75.68;10.00;;;8.20;99.90;;;;;;5034819;28;20204;-53
2022/09/29 04:40:07;;;;;;;131.70;11.23;;;8.20;99.90;;;;;;5042426;28;20171;-51
2022/09/29 04:42:33;;;;;;;81.97;11.85;;;8.20;99.90;;;;;;5051454;28;20183;-53
2022/09/29 04:44:59;;;;;;;43.40;12.70;;;8.30;99.90;;;;;;5051419;28;20176;-58
2022/09/29 04:47:25;;;;;;;68.93;12.48;;;8.20;99.90;;;;;;5055568;28;20175;-52
2022/09/29 04:49:50;;;;;;;38.03;12.90;;;8.30;99.90;;;;;;5053613;28;20180;-57
2022/09/29 04:52:16;;;;;;;33.83;13.32;;;8.30;99.90;;;;;;5029295;28;20215;-53
2022/09/29 04:54:42;;;;;;;27.77;12.43;;;8.20;99.90;;;;;;5037299;28;20191;-56
2022/09/29 04:57:09;;;;;;;18.55;12.05;;;8.20;99.90;;;;;;5044830;28;20710;-56
2022/09/29 04:59:35;;;;;;;27.10;12.40;;;8.20;99.90;;;;;;5043347;28;20236;-50
2022/09/29 05:02:01;;;;;;;24.65;13.20;;;8.20;99.90;;;;;;5049447;28;20520;-50
2022/09/29 05:04:26;;;;;;;22.58;13.75;;;8.20;99.90;;;;;;5055206;28;20678;-54
2022/09/29 05:06:52;;;;;;;73.45;13.73;;;8.20;99.90;;;;;;5052384;28;20199;-57
2022/09/29 05:09:18;;;;;;;61.95;15.27;;;8.20;99.90;;;;;;5054898;28;20638;-50
2022/09/29 05:11:44;;;;;;;47.30;15.18;;;8.10;99.90;;;;;;5037279;28;20210;-54
2022/09/29 05:14:10;;;;;;;82.32;15.73;;;8.10;99.90;;;;;;5037557;28;20535;-52
2022/09/29 05:16:35;;;;;;;59.28;16.50;;;8.10;99.90;;;;;;5026016;28;20199;-54
2022/09/29 05:19:01;;;;;;;109.15;16.83;;;8.10;99.90;;;;;;5045012;28;20545;-53
2022/09/29 05:21:27;;;;;;;202.32;17.75;;;8.10;99.90;;;;;;5055266;28;20191;-50
2022/09/29 05:23:53;;;;;;;169.45;17.42;;;8.10;99.90;;;;;;5037248;28;20180;-54
2022/09/29 05:26:19;;;;;;;386.05;18.35;;;8.10;99.90;;;;;;5017562;28;20184;-52
2022/09/29 05:28:46;;;;;;;251.55;16.98;;;8.20;99.90;;;;;;5044225;28;20184;-57
2022/09/29 05:31:13;;;;;;;260.90;15.45;;;8.20;99.90;;;;;;5047027;28;20515;-57
2022/09/29 05:33:39;;;;;;;160.77;15.20;;;8.20;99.90;;;;;;5035154;28;20537;-56
2022/09/29 05:36:11;;;;;;;171.80;15.10;;;8.20;99.90;;;;;;5051555;28;20524;-56
2022/09/29 05:38:38;;;;;;;216.38;14.60;;;8.20;99.90;;;;;;5035002;28;20172;-54
2022/09/29 05:41:09;;;;;;;229.27;14.75;;;8.20;99.90;;;;;;5034444;28;20184;-57
2022/09/29 05:43:36;;;;;;;140.50;13.57;;;8.20;99.90;;;;;;5052757;28;20188;-52
2022/09/29 05:46:04;;;;;;;150.48;12.65;;;8.10;99.90;;;;;;5055492;28;20639;-53
2022/09/29 05:48:30;;;;;;;129.50;12.60;;;8.10;99.90;;;;;;5042848;28;20190;-57
2022/09/29 05:50:57;;;;;;;60.45;11.10;;;8.10;99.90;;;;;;5041236;28;20220;-51
2022/09/29 05:53:23;;;;;;;81.43;11.48;;;8.00;99.90;;;;;;5030353;28;20207;-55
2022/09/29 05:55:49;;;;;;;60.25;11.38;;;8.10;99.90;;;;;;5053953;28;20167;-52
2022/09/29 05:58:15;;;;;;;31.48;11.35;;;8.10;99.90;;;;;;5024943;28;20585;-51
2022/09/29 06:00:41;;;;;;;51.80;12.07;;;8.10;99.90;;;;;;5027336;28;20191;-53
2022/09/29 06:03:07;;;;;;;43.70;12.57;;;8.10;99.90;;;;;;5033787;28;20227;-55
2022/09/29 06:05:38;;;;;;;24.85;12.02;;;8.10;99.90;;;;;;5054000;28;20597;-54
2022/09/29 06:08:04;;;;;;;47.90;12.13;;;8.10;99.90;;;;;;5029418;28;20218;-61
2022/09/29 06:10:30;;;;;;;62.65;12.05;;;8.10;99.90;;;;;;5042547;28;20187;-54
2022/09/29 06:12:56;;;;;;;87.40;12.13;;;8.10;99.90;;;;;;5051727;28;20233;-54
2022/09/29 06:15:23;;;;;;;73.63;12.63;;;8.10;99.90;;;;;;5053993;28;20183;-52
2022/09/29 06:17:56;;;;;;;61.60;12.43;;;8.10;99.90;;;;;;5050671;28;20643;-53
2022/09/29 06:20:21;;;;;;;44.70;12.85;;;8.10;99.90;;;;;;5040637;28;20222;-59
2022/09/29 06:22:47;;;;;;;105.50;14.38;;;8.10;99.90;;;;;;5049271;28;20210;-53
2022/09/29 06:25:13;;;;;;;75.30;13.73;;;8.10;99.90;;;;;;5037519;28;20462;-52
2022/09/29 06:27:40;;;;;;;87.78;13.68;;;8.20;99.90;;;;;;5027699;28;20230;-54
2022/09/29 06:30:06;;;;;;;50.05;14.25;;;8.20;99.90;;;;;;5038418;28;20257;-55
2022/09/29 06:32:33;;;;;;;39.10;13.60;;;8.20;99.90;;;;;;5025545;28;20592;-55
2022/09/29 06:37:45;;;;;;;50.08;13.13;;;8.20;99.90;;;;;;5044189;28;20183;-55
2022/09/29 06:40:12;;;;;;;117.10;13.68;;;8.30;99.90;;;;;;5017792;28;20184;-53
2022/09/29 06:42:38;;;;;;;99.53;13.07;;;8.30;99.90;;;;;;5041754;28;20277;-55
2022/09/29 06:45:04;;;;;;;83.78;14.07;;;8.30;99.90;;;;;;5053150;28;20308;-61
2022/09/29 06:47:30;;;;;;;103.75;13.80;;;8.30;99.90;;;;;;5019533;28;20422;-54
2022/09/29 06:49:58;;;;;;;141.63;14.65;;;8.30;99.90;;;;;;5039053;28;20657;-52
2022/09/29 06:52:24;;;;;;;113.30;13.95;;;8.30;99.90;;;;;;5051287;28;20716;-54
2022/09/29 06:54:49;;;;;;;74.35;15.13;;;8.30;99.90;;;;;;5046651;28;20180;-62
2022/09/29 06:57:16;;;;;;;75.95;15.20;;;8.40;99.90;;;;;;5022755;28;20265;-52
2022/09/29 06:59:41;;;;;;;70.10;15.10;;;8.40;99.90;;;;;;5052904;28;20586;-52
2022/09/29 07:02:10;;;;;;;94.32;17.25;;;8.40;99.90;;;;;;5050658;28;20195;-55
2022/09/29 07:04:35;;;;;;;49.55;16.45;;;8.50;99.90;;;;;;5058424;28;20623;-57
2022/09/29 07:07:01;;;;;;;79.20;17.02;;;8.60;99.90;;;;;;5049584;28;20202;-57
2022/09/29 07:09:27;;;;;;;93.30;17.42;;;8.60;99.90;;;;;;5052115;28;20180;-57
2022/09/29 07:11:52;;;;;;;114.05;17.55;;;8.70;99.90;;;;;;5051519;28;20265;-61
2022/09/29 07:14:21;;;;;;;97.95;16.70;;;8.70;99.90;;;;;;5051653;28;20191;-58
2022/09/29 07:16:47;;;;;;;147.82;17.73;;;8.70;99.90;;;;;;5041192;28;20187;-58
2022/09/29 07:19:14;;;;;;;99.88;17.85;;;8.80;99.90;;;;;;5040541;28;20244;-57
2022/09/29 07:21:40;;;;;;;213.55;19.33;;;8.80;99.90;;;;;;5031308;28;20184;-56
2022/09/29 07:24:07;;;;;;;116.47;18.13;;;8.80;99.90;;;;;;5051463;28;20183;-56
2022/09/29 07:26:34;;;;;;;184.85;18.05;;;8.80;99.90;;;;;;5046852;28;20183;-59
2022/09/29 07:28:59;;;;;;;166.13;18.23;;;8.80;99.90;;;;;;5038567;28;20184;-58
2022/09/29 07:31:25;;;;;;;208.75;19.58;;;8.90;99.90;;;;;;5045432;28;20214;-57
2022/09/29 07:33:51;;;;;;;97.30;18.58;;;8.90;99.90;;;;;;5051713;28;20659;-57
2022/09/29 07:36:19;;;;;;;97.07;19.88;;;8.90;99.90;;;;;;5050504;28;20210;-61
2022/09/29 07:38:46;;;;;;;64.68;19.65;;;8.90;99.90;;;;;;5037091;28;20191;-58
2022/09/29 07:41:12;;;;;;;122.15;20.88;;;9.00;99.90;;;;;;5036344;28;20270;-59
2022/09/29 07:43:39;;;;;;;103.35;21.27;;;9.00;99.90;;;;;;5020699;28;20187;-56
2022/09/29 07:46:06;;;;;;;130.75;21.02;;;9.10;99.90;;;;;;5053836;28;20210;-57
2022/09/29 07:48:33;;;;;;;71.18;21.42;;;9.10;99.90;;;;;;5039199;28;20321;-58
2022/09/29 07:51:04;;;;;;;107.80;22.40;;;9.20;99.90;;;;;;5046795;28;20219;-58
2022/09/29 07:53:31;;;;;;;72.95;21.70;;;9.30;99.90;;;;;;5050793;28;20183;-58
2022/09/29 07:56:02;;;;;;;122.90;21.73;;;9.30;99.90;;;;;;5008413;28;20267;-57
2022/09/29 07:58:31;;;;;;;39.67;22.88;;;9.40;99.90;;;;;;5037428;28;20195;-59
2022/09/29 08:00:56;;;;;;;71.93;23.05;;;9.40;99.90;;;;;;5029920;28;20604;-58
2022/09/29 08:03:24;;;;;;;77.75;23.90;;;9.50;99.90;;;;;;5051232;28;20354;-59
2022/09/29 08:05:51;;;;;;;49.35;23.27;;;9.60;99.90;;;;;;5044706;28;20184;-56
2022/09/29 08:08:17;;;;;;;63.70;24.40;;;9.60;99.90;;;;;;5042914;28;20192;-57
2022/09/29 08:10:42;;;;;;;81.97;24.50;;;9.70;99.90;;;;;;5037609;28;20536;-60
2022/09/29 08:13:08;;;;;;;82.70;24.40;;;9.70;99.90;;;;;;5048885;28;20314;-56
2022/09/29 08:15:34;;;;;;;49.17;24.77;;;9.70;99.90;;;;;;5015354;28;20176;-57
2022/09/29 08:18:00;;;;;;;115.60;24.85;;;9.80;99.90;;;;;;5044370;28;20180;-57
2022/09/29 08:20:25;;;;;;;54.42;26.27;;;9.80;99.90;;;;;;5055544;28;20252;-57
2022/09/29 08:22:52;;;;;;;73.82;26.55;;;9.80;99.90;;;;;;5038534;28;20554;-58
2022/09/29 08:25:18;;;;;;;79.70;26.58;;;9.90;99.90;;;;;;5036265;28;20279;-57
2022/09/29 08:27:44;;;;;;;131.32;26.83;;;9.90;99.90;;;;;;5041978;28;20669;-65
2022/09/29 08:30:11;;;;;;;104.50;27.70;;;10.00;99.90;;;;;;5055116;28;20202;-58
2022/09/29 08:32:37;;;;;;;125.95;26.77;;;10.00;99.90;;;;;;5046860;28;20208;-57
2022/09/29 08:35:04;;;;;;;95.50;28.15;;;10.00;99.90;;;;;;5034459;28;20640;-58
2022/09/29 08:37:30;;;;;;;111.40;28.50;;;10.10;99.90;;;;;;5040645;28;20183;-57
2022/09/29 08:39:56;;;;;;;75.53;29.27;;;10.20;99.90;;;;;;5055156;28;20175;-58
2022/09/29 08:42:43;;;;;;;103.20;28.55;;;10.20;99.90;;;;;;5034719;28;20248;-56
2022/09/29 08:45:15;;;;;;;63.55;28.50;;;10.30;99.90;;;;;;5039628;28;20190;-63
2022/09/29 08:47:45;;;;;;;54.05;29.27;;;10.30;99.90;;;;;;5024397;28;20178;-57
2022/09/29 08:50:41;;;;;;;66.60;30.27;;;10.40;99.90;;;;;;5030292;28;20188;-58
2022/09/29 08:53:12;;;;;;;50.38;28.85;;;10.50;99.90;;;;;;5044997;28;20240;-57
2022/09/29 08:55:52;;;;;;;61.42;28.17;;;10.50;99.90;;;;;;5030984;28;20286;-57
2022/09/29 08:58:18;;;;;;;61.20;30.58;;;10.60;99.90;;;;;;5053445;28;20187;-55
2022/09/29 09:00:59;;;;;;;53.40;29.30;;;10.60;99.90;;;;;;5053872;28;20212;-57
2022/09/29 09:03:59;;;;;;;57.38;32.10;;;10.60;99.90;;;;;;5021774;28;20421;-59
2022/09/29 09:06:31;;;;;;;54.95;33.10;;;10.60;99.90;;;;;;5036176;28;20180;-63
2022/09/29 09:09:21;;;;;;;52.53;32.58;;;10.70;99.90;;;;;;5034171;28;20248;-57
2022/09/29 09:12:12;;;;;;;55.53;34.53;;;10.80;99.90;;;;;;5035058;28;20215;-60
2022/09/29 09:15:15;;;;;;;56.42;34.88;;;10.90;99.90;;;;;;5034211;28;20184;-57
2022/09/29 09:18:18;;;;;;;56.20;35.60;;;11.00;99.90;;;;;;5039665;28;20185;-57
2022/09/29 09:20:55;;;;;;;56.75;34.17;;;11.20;99.90;;;;;;5055242;28;20175;-59
2022/09/29 09:23:53;;;;;;;48.72;32.08;;;11.30;99.90;;;;;;5043387;28;20270;-60
2022/09/29 09:26:23;;;;;;;48.78;32.05;;;11.40;99.90;;;;;;5035410;28;20187;-59
2022/09/29 09:29:03;;;;;;;49.90;31.75;;;11.50;99.90;;;;;;5039253;28;20628;-60
2022/09/29 09:31:45;;;;;;;50.55;33.17;;;11.50;99.90;;;;;;5024008;28;20211;-58
2022/09/29 09:34:35;;;;;;;50.58;32.78;;;11.40;99.90;;;;;;5054141;28;20176;-59
2022/09/29 09:37:13;;;;;;;45.63;34.00;;;11.40;99.90;;;;;;5049129;28;20202;-58
2022/09/29 09:39:57;;;;;;;50.75;32.92;;;11.50;99.90;;;;;;5044711;28;20598;-59
2022/09/29 09:42:27;;;;;;;49.92;33.88;;;11.50;99.90;;;;;;5047535;28;20232;-58
2022/09/29 09:45:01;;;;;;;42.70;29.85;;;11.60;99.90;;;;;;5030339;28;20204;-59
2022/09/29 09:47:31;;;;;;;44.20;28.67;;;11.70;99.90;;;;;;5047973;28;20183;-58
2022/09/29 09:50:01;;;;;;;43.42;28.00;;;11.80;99.90;;;;;;5045126;28;20273;-58
2022/09/29 09:52:42;;;;;;;42.70;27.10;;;11.90;99.90;;;;;;5039296;28;20260;-57
2022/09/29 09:55:16;;;;;;;38.45;27.35;;;12.00;99.90;;;;;;5034939;28;20182;-58
2022/09/29 09:57:52;;;;;;;38.80;27.48;;;12.10;99.90;;;;;;5052926;28;20179;-57
2022/09/29 10:00:25;;;;;;;38.55;27.27;;;12.30;99.90;;;;;;5044494;28;20214;-66
2022/09/29 10:02:55;;;;;;;36.53;25.92;;;12.50;99.90;;;;;;4988243;28;20281;-58
2022/09/29 10:05:25;;;;;;;36.20;25.98;;;12.60;99.90;;;;;;5034045;28;20167;-60
2022/09/29 10:07:52;;;;;;;33.63;25.20;;;12.70;99.90;;;;;;5041209;28;20180;-59
2022/09/29 10:10:24;;;;;;;33.75;24.27;;;12.70;99.90;;;;;;5033324;28;20653;-59
2022/09/29 10:13:01;;;;;;;32.03;21.65;;;12.80;99.90;;;;;;5037225;28;20187;-59
2022/09/29 10:15:45;;;;;;;31.30;21.23;;;12.90;99.90;;;;;;5048194;28;20182;-62
2022/09/29 10:18:20;;;;;;;28.67;18.85;;;13.10;99.90;;;;;;5042663;28;20171;-58
2022/09/29 10:20:46;;;;;;;23.40;17.83;;;13.20;99.90;;;;;;5032716;28;20180;-59
2022/09/29 10:23:28;;;;;;;22.75;16.88;;;13.30;99.90;;;;;;5030960;28;20192;-59
2022/09/29 10:26:11;;;;;;;15.27;11.13;;;13.40;99.90;;;;;;5042110;28;21278;-62
2022/09/29 10:28:51;;;;;;;13.88;8.95;;;13.50;99.90;;;;;;5049213;28;20225;-58
2022/09/29 10:31:21;;;;;;;13.63;9.82;;;13.60;99.90;;;;;;5054420;28;20233;-59
2022/09/29 10:34:00;;;;;;;16.45;11.32;;;13.70;99.90;;;;;;5049677;28;20187;-59
2022/09/29 10:36:31;;;;;;;19.58;12.07;;;13.80;99.90;;;;;;5026757;28;20210;-63
2022/09/29 10:38:57;;;;;;;14.43;9.43;;;14.00;99.90;;;;;;5035533;28;20266;-59
2022/09/29 10:41:24;;;;;;;13.93;9.90;;;14.20;99.90;;;;;;5049817;28;20588;-60
2022/09/29 10:43:51;;;;;;;9.85;7.30;;;14.40;99.90;;;;;;5053994;28;20651;-61
2022/09/29 10:46:51;;;;;;;11.65;7.18;;;14.50;99.90;;;;;;5047054;28;20202;-61
2022/09/29 10:49:22;;;;;;;5.47;3.83;;;14.60;99.90;;;;;;5032465;28;20277;-60
2022/09/29 10:52:01;;;;;;;4.15;2.40;;;14.70;99.90;;;;;;5047351;28;20207;-61
2022/09/29 10:54:32;;;;;;;8.48;4.70;;;14.70;99.90;;;;;;5051250;28;20246;-61
2022/09/29 10:56:59;;;;;;;7.43;5.78;;;14.80;99.90;;;;;;5054028;28;20163;-62
2022/09/29 10:59:25;;;;;;;10.23;6.63;;;14.80;99.90;;;;;;5040692;28;20601;-62
2022/09/29 11:02:00;;;;;;;10.50;5.60;;;14.80;99.90;;;;;;5033052;28;20778;-67
2022/09/29 11:04:32;;;;;;;5.97;4.22;;;14.90;99.90;;;;;;5052338;28;20186;-62
2022/09/29 11:07:09;;;;;;;8.93;5.38;;;15.00;99.90;;;;;;5034737;28;20686;-61
2022/09/29 11:09:43;;;;;;;6.85;5.50;;;15.20;99.90;;;;;;5050581;28;20273;-61
2022/09/29 11:12:33;;;;;;;6.85;4.88;;;15.30;99.90;;;;;;5045710;28;20336;-60
2022/09/29 11:15:00;;;;;;;6.32;4.57;;;15.50;99.90;;;;;;5043692;28;20203;-64
2022/09/29 11:17:30;;;;;;;5.18;3.58;;;15.50;99.90;;;;;;5045413;28;20578;-60
2022/09/29 11:20:05;;;;;;;7.03;4.40;;;15.50;99.90;;;;;;5045756;28;20225;-62
2022/09/29 11:22:52;;;;;;;7.32;5.00;;;15.50;99.90;;;;;;5034164;28;20187;-60
2022/09/29 11:25:44;;;;;;;7.03;4.65;;;15.60;99.90;;;;;;5040024;28;20198;-60
2022/09/29 11:28:29;;;;;;;6.22;3.88;;;15.60;99.90;;;;;;5049287;28;20187;-61
2022/09/29 11:31:08;;;;;;;5.22;3.53;;;15.70;99.90;;;;;;5047730;28;20225;-63
2022/09/29 11:33:55;;;;;;;3.40;2.20;;;15.70;99.90;;;;;;5051037;28;20194;-61
2022/09/29 11:36:52;;;;;;;5.97;2.50;;;15.80;99.90;;;;;;5059638;28;20649;-62
2022/09/29 11:39:27;;;;;;;7.05;2.10;;;15.90;99.90;;;;;;5054680;28;20261;-66
2022/09/29 11:42:22;;;;;;;2.17;1.60;;;15.90;99.90;;;;;;5037450;28;20182;-63
2022/09/29 11:44:53;;;;;;;2.63;2.10;;;16.00;99.90;;;;;;5047328;28;20273;-62
2022/09/29 11:47:19;;;;;;;2.45;2.17;;;16.00;99.90;;;;;;5067462;28;20211;-63
2022/09/29 11:49:45;;;;;;;4.70;2.40;;;16.00;99.90;;;;;;5051939;28;20222;-66
2022/09/29 11:52:16;;;;;;;3.47;2.05;;;16.00;99.90;;;;;;5045148;28;20211;-62
2022/09/29 11:54:42;;;;;;;5.38;1.98;;;16.00;99.90;;;;;;5057192;28;20163;-64
2022/09/29 11:57:34;;;;;;;2.92;1.80;;;15.90;99.90;;;;;;5040304;28;20180;-62
2022/09/29 12:00:08;;;;;;;5.57;2.22;;;15.90;99.90;;;;;;5026171;28;20640;-66
2022/09/29 12:02:46;;;;;;;3.88;1.83;;;16.00;99.90;;;;;;5047220;28;20234;-65
2022/09/29 12:05:23;;;;;;;3.30;1.80;;;16.00;99.90;;;;;;5058884;28;20245;-62
2022/09/29 12:08:01;;;;;;;2.95;1.42;;;16.20;99.90;;;;;;5051911;28;20193;-63
2022/09/29 12:10:49;;;;;;;3.80;1.90;;;16.40;99.90;;;;;;5059377;28;20186;-62
2022/09/29 12:13:24;;;;;;;3.75;2.00;;;16.60;99.90;;;;;;5036123;28;20248;-65
2022/09/29 12:16:06;;;;;;;1.65;1.50;;;16.70;99.90;;;;;;5051754;28;20289;-61
2022/09/29 12:18:40;;;;;;;4.90;1.67;;;16.90;99.90;;;;;;5053783;28;20183;-60
2022/09/29 12:21:08;;;;;;;1.77;1.60;;;17.20;99.90;;;;;;5048597;28;20180;-59
2022/09/29 12:23:39;;;;;;;1.70;1.58;;;17.40;99.90;;;;;;5039796;28;20186;-60
2022/09/29 12:26:13;;;;;;;8.45;2.03;;;17.60;99.90;;;;;;5055692;28;20171;-59
2022/09/29 12:28:46;;;;;;;2.72;1.70;;;17.90;99.90;;;;;;5033609;28;20183;-66
2022/09/29 12:31:25;;;;;;;4.03;1.65;;;18.10;99.90;;;;;;5052004;28;20203;-60
2022/09/29 12:33:58;;;;;;;2.67;1.52;;;18.30;99.90;;;;;;5021279;28;20562;-65
2022/09/29 12:36:49;;;;;;;1.80;1.40;;;18.50;99.90;;;;;;5035870;28;20184;-60
2022/09/29 12:39:47;;;;;;;2.22;1.60;;;18.60;99.20;;;;;;5040388;28;20241;-59
2022/09/29 12:42:22;;;;;;;3.13;1.70;;;18.70;98.50;;;;;;5044160;28;20187;-61
2022/09/29 12:45:06;;;;;;;2.42;1.70;;;18.70;98.40;;;;;;5047669;28;20320;-60
2022/09/29 12:48:16;;;;;;;2.53;1.50;;;18.80;98.10;;;;;;5052825;28;20183;-60
2022/09/29 12:50:50;;;;;;;3.17;1.63;;;18.80;97.10;;;;;;4982702;28;20181;-60
2022/09/29 12:53:32;;;;;;;2.83;1.70;;;18.80;97.40;;;;;;5035569;28;20199;-63
2022/09/29 12:56:21;;;;;;;4.53;2.20;;;18.90;97.30;;;;;;5025850;28;20197;-61
2022/09/29 12:58:53;;;;;;;5.30;1.90;;;19.00;96.90;;;;;;5047557;28;20172;-65
2022/09/29 13:01:29;;;;;;;3.60;2.00;;;19.10;96.50;;;;;;5033406;28;20638;-60
2022/09/29 13:03:57;;;;;;;3.17;1.90;;;19.00;96.00;;;;;;5022418;28;20231;-65
2022/09/29 13:07:04;;;;;;;5.88;1.85;;;18.90;95.90;;;;;;5046438;28;20262;-60